sensor_id;sensor_type;location;lat;lon;timestamp;pressure;altitude;pressure_sealevel;temperature;humidity
29907;BME280;16776;50.958;10.994;2023-04-22T00:00:04;98029.00;;;12.04;84.30
29907;BME280;16776;50.958;10.994;2023-04-22T00:02:33;98018.91;;;11.99;84.53
29907;BME280;16776;50.958;10.994;2023-04-22T00:05:01;98033.69;;;11.96;84.64
29907;BME280;16776;50.958;10.994;2023-04-22T00:07:28;98022.63;;;11.92;84.28
29907;BME280;16776;50.958;10.994;2023-04-22T00:09:56;98031.28;;;11.91;84.52
29907;BME280;16776;50.958;10.994;2023-04-22T00:12:22;98031.47;;;11.87;84.69
29907;BME280;16776;50.958;10.994;2023-04-22T00:14:49;98023.94;;;11.82;84.43
29907;BME280;16776;50.958;10.994;2023-04-22T00:17:16;98021.47;;;11.79;84.54
29907;BME280;16776;50.958;10.994;2023-04-22T00:19:42;98021.59;;;11.76;85.24
29907;BME280;16776;50.958;10.994;2023-04-22T00:22:09;98019.13;;;11.73;84.48
29907;BME280;16776;50.958;10.994;2023-04-22T00:24:35;98015.00;;;11.69;84.72
29907;BME280;16776;50.958;10.994;2023-04-22T00:27:03;98013.38;;;11.66;84.52
29907;BME280;16776;50.958;10.994;2023-04-22T00:29:30;98022.22;;;11.61;84.53
29907;BME280;16776;50.958;10.994;2023-04-22T00:31:56;98010.38;;;11.55;84.67
29907;BME280;16776;50.958;10.994;2023-04-22T00:34:23;98003.72;;;11.50;85.12
29907;BME280;16776;50.958;10.994;2023-04-22T00:36:49;98009.00;;;11.47;85.22
29907;BME280;16776;50.958;10.994;2023-04-22T00:39:16;98000.63;;;11.41;84.98
29907;BME280;16776;50.958;10.994;2023-04-22T00:41:43;98000.88;;;11.35;85.16
29907;BME280;16776;50.958;10.994;2023-04-22T00:44:11;98000.03;;;11.35;85.11
29907;BME280;16776;50.958;10.994;2023-04-22T00:46:38;98006.38;;;11.26;85.43
29907;BME280;16776;50.958;10.994;2023-04-22T00:49:05;98002.19;;;11.24;85.56
29907;BME280;16776;50.958;10.994;2023-04-22T00:51:32;98003.28;;;11.18;85.34
29907;BME280;16776;50.958;10.994;2023-04-22T00:53:59;97988.22;;;11.08;85.24
29907;BME280;16776;50.958;10.994;2023-04-22T00:56:27;98001.84;;;11.11;85.30
29907;BME280;16776;50.958;10.994;2023-04-22T00:58:54;97997.69;;;11.07;85.72
29907;BME280;16776;50.958;10.994;2023-04-22T01:01:22;98004.59;;;11.07;85.47
29907;BME280;16776;50.958;10.994;2023-04-22T01:03:48;98005.66;;;11.01;85.59
29907;BME280;16776;50.958;10.994;2023-04-22T01:06:17;98001.41;;;11.00;85.63
29907;BME280;16776;50.958;10.994;2023-04-22T01:08:45;98002.41;;;10.96;86.11
29907;BME280;16776;50.958;10.994;2023-04-22T01:11:12;98006.78;;;10.94;86.00
29907;BME280;16776;50.958;10.994;2023-04-22T01:13:39;98006.00;;;10.92;85.58
29907;BME280;16776;50.958;10.994;2023-04-22T01:16:07;98003.44;;;10.92;85.65
29907;BME280;16776;50.958;10.994;2023-04-22T01:18:36;98002.59;;;10.91;86.06
29907;BME280;16776;50.958;10.994;2023-04-22T01:21:02;98009.72;;;10.85;85.67
29907;BME280;16776;50.958;10.994;2023-04-22T01:23:31;97997.13;;;10.77;86.08
29907;BME280;16776;50.958;10.994;2023-04-22T01:25:58;98014.13;;;10.81;85.86
29907;BME280;16776;50.958;10.994;2023-04-22T01:28:24;98004.00;;;10.77;85.92
29907;BME280;16776;50.958;10.994;2023-04-22T01:30:51;98012.53;;;10.79;86.41
29907;BME280;16776;50.958;10.994;2023-04-22T01:33:18;98004.91;;;10.76;86.20
29907;BME280;16776;50.958;10.994;2023-04-22T01:35:45;98011.84;;;10.74;86.24
29907;BME280;16776;50.958;10.994;2023-04-22T01:38:12;98009.34;;;10.72;86.13
29907;BME280;16776;50.958;10.994;2023-04-22T01:40:40;98008.50;;;10.72;86.09
29907;BME280;16776;50.958;10.994;2023-04-22T01:43:07;98012.09;;;10.68;86.47
29907;BME280;16776;50.958;10.994;2023-04-22T01:45:33;98015.56;;;10.67;86.24
29907;BME280;16776;50.958;10.994;2023-04-22T01:48:00;98009.59;;;10.64;86.46
29907;BME280;16776;50.958;10.994;2023-04-22T01:50:26;98013.91;;;10.64;86.17
29907;BME280;16776;50.958;10.994;2023-04-22T01:52:53;98012.19;;;10.64;86.43
29907;BME280;16776;50.958;10.994;2023-04-22T01:55:20;98013.88;;;10.66;86.40
29907;BME280;16776;50.958;10.994;2023-04-22T01:57:47;98008.66;;;10.67;86.24
29907;BME280;16776;50.958;10.994;2023-04-22T02:00:15;98017.25;;;10.68;86.56
29907;BME280;16776;50.958;10.994;2023-04-22T02:02:41;98009.50;;;10.68;86.56
29907;BME280;16776;50.958;10.994;2023-04-22T02:05:08;98016.31;;;10.69;86.82
29907;BME280;16776;50.958;10.994;2023-04-22T02:07:35;98013.75;;;10.69;86.27
29907;BME280;16776;50.958;10.994;2023-04-22T02:10:02;98020.56;;;10.70;86.32
29907;BME280;16776;50.958;10.994;2023-04-22T02:12:29;98020.56;;;10.70;86.64
29907;BME280;16776;50.958;10.994;2023-04-22T02:14:57;98021.38;;;10.72;86.57
29907;BME280;16776;50.958;10.994;2023-04-22T02:17:24;98018.00;;;10.70;86.47
29907;BME280;16776;50.958;10.994;2023-04-22T02:19:51;98022.31;;;10.69;86.87
29907;BME280;16776;50.958;10.994;2023-04-22T02:22:18;98024.88;;;10.69;86.52
29907;BME280;16776;50.958;10.994;2023-04-22T02:24:45;98016.25;;;10.70;86.97
29907;BME280;16776;50.958;10.994;2023-04-22T02:27:11;98016.31;;;10.69;86.80
29907;BME280;16776;50.958;10.994;2023-04-22T02:29:38;98024.84;;;10.71;86.52
29907;BME280;16776;50.958;10.994;2023-04-22T02:32:07;98023.06;;;10.73;86.64
29907;BME280;16776;50.958;10.994;2023-04-22T02:34:33;98018.09;;;10.68;87.28
29907;BME280;16776;50.958;10.994;2023-04-22T02:37:00;98015.41;;;10.70;86.67
29907;BME280;16776;50.958;10.994;2023-04-22T02:39:27;98018.09;;;10.68;87.01
29907;BME280;16776;50.958;10.994;2023-04-22T02:41:53;98012.94;;;10.68;86.85
29907;BME280;16776;50.958;10.994;2023-04-22T02:44:20;98012.94;;;10.68;86.80
29907;BME280;16776;50.958;10.994;2023-04-22T02:46:46;98014.59;;;10.69;86.79
29907;BME280;16776;50.958;10.994;2023-04-22T02:49:14;98017.06;;;10.72;87.04
29907;BME280;16776;50.958;10.994;2023-04-22T02:51:41;98014.53;;;10.71;86.83
29907;BME280;16776;50.958;10.994;2023-04-22T02:54:07;98019.69;;;10.71;87.11
29907;BME280;16776;50.958;10.994;2023-04-22T02:56:34;98020.47;;;10.73;87.05
29907;BME280;16776;50.958;10.994;2023-04-22T02:59:00;98016.22;;;10.72;86.97
29907;BME280;16776;50.958;10.994;2023-04-22T03:01:27;98014.44;;;10.74;86.84
29907;BME280;16776;50.958;10.994;2023-04-22T03:03:54;98012.69;;;10.74;87.19
29907;BME280;16776;50.958;10.994;2023-04-22T03:06:25;98017.63;;;10.80;86.78
29907;BME280;16776;50.958;10.994;2023-04-22T03:08:52;98015.19;;;10.76;87.35
29907;BME280;16776;50.958;10.994;2023-04-22T03:11:18;98014.25;;;10.78;87.44
29907;BME280;16776;50.958;10.994;2023-04-22T03:13:45;98011.63;;;10.80;87.43
29907;BME280;16776;50.958;10.994;2023-04-22T03:16:11;98014.13;;;10.81;87.20
29907;BME280;16776;50.958;10.994;2023-04-22T03:18:38;98010.59;;;10.84;87.24
29907;BME280;16776;50.958;10.994;2023-04-22T03:21:04;98010.56;;;10.85;87.41
29907;BME280;16776;50.958;10.994;2023-04-22T03:23:33;98009.47;;;10.91;87.68
29907;BME280;16776;50.958;10.994;2023-04-22T03:25:59;98014.63;;;10.91;87.78
29907;BME280;16776;50.958;10.994;2023-04-22T03:28:26;98007.69;;;10.93;87.16
29907;BME280;16776;50.958;10.994;2023-04-22T03:30:52;98006.78;;;10.94;87.63
29907;BME280;16776;50.958;10.994;2023-04-22T03:33:19;98002.41;;;10.96;87.27
29907;BME280;16776;50.958;10.994;2023-04-22T03:35:46;98004.09;;;10.97;87.37
29907;BME280;16776;50.958;10.994;2023-04-22T03:38:13;98007.47;;;10.99;87.08
29907;BME280;16776;50.958;10.994;2023-04-22T03:40:41;97996.19;;;11.01;87.31
29907;BME280;16776;50.958;10.994;2023-04-22T03:43:08;98002.31;;;10.99;87.13
29907;BME280;16776;50.958;10.994;2023-04-22T03:45:34;98009.16;;;11.00;87.51
29907;BME280;16776;50.958;10.994;2023-04-22T03:48:01;98006.47;;;11.01;87.68
29907;BME280;16776;50.958;10.994;2023-04-22T03:50:35;98010.78;;;11.01;87.16
29907;BME280;16776;50.958;10.994;2023-04-22T03:53:01;98014.22;;;11.01;87.27
29907;BME280;16776;50.958;10.994;2023-04-22T03:55:28;98001.34;;;11.01;87.72
29907;BME280;16776;50.958;10.994;2023-04-22T03:57:57;97995.47;;;10.98;87.28
29907;BME280;16776;50.958;10.994;2023-04-22T04:00:24;98003.91;;;11.01;87.65
29907;BME280;16776;50.958;10.994;2023-04-22T04:02:50;98004.75;;;11.02;87.37
29907;BME280;16776;50.958;10.994;2023-04-22T04:05:17;98005.66;;;11.01;87.50
29907;BME280;16776;50.958;10.994;2023-04-22T04:07:44;98007.31;;;11.02;87.28
29907;BME280;16776;50.958;10.994;2023-04-22T04:10:10;98002.19;;;11.02;87.56
29907;BME280;16776;50.958;10.994;2023-04-22T04:12:37;98010.78;;;11.01;87.52
29907;BME280;16776;50.958;10.994;2023-04-22T04:15:06;98006.38;;;11.04;87.54
29907;BME280;16776;50.958;10.994;2023-04-22T04:17:33;98001.34;;;11.01;87.36
29907;BME280;16776;50.958;10.994;2023-04-22T04:19:59;98009.91;;;11.02;87.82
29907;BME280;16776;50.958;10.994;2023-04-22T04:22:26;98001.34;;;11.01;87.79
29907;BME280;16776;50.958;10.994;2023-04-22T04:24:53;98009.00;;;11.03;87.38
29907;BME280;16776;50.958;10.994;2023-04-22T04:27:20;98003.84;;;11.03;87.89
29907;BME280;16776;50.958;10.994;2023-04-22T04:29:48;98003.84;;;11.03;87.82
29907;BME280;16776;50.958;10.994;2023-04-22T04:32:15;98004.59;;;11.07;87.74
29907;BME280;16776;50.958;10.994;2023-04-22T04:34:42;98008.91;;;11.06;87.80
29907;BME280;16776;50.958;10.994;2023-04-22T04:37:09;98008.78;;;11.09;88.14
29907;BME280;16776;50.958;10.994;2023-04-22T04:39:35;98002.59;;;11.13;87.73
29907;BME280;16776;50.958;10.994;2023-04-22T04:42:02;98008.53;;;11.15;87.76
29907;BME280;16776;50.958;10.994;2023-04-22T04:44:29;98007.53;;;11.19;88.17
29907;BME280;16776;50.958;10.994;2023-04-22T04:46:56;98001.34;;;11.23;87.85
29907;BME280;16776;50.958;10.994;2023-04-22T04:49:24;98011.38;;;11.31;88.28
29907;BME280;16776;50.958;10.994;2023-04-22T04:51:54;98014.53;;;11.37;87.88
29907;BME280;16776;50.958;10.994;2023-04-22T04:54:20;98012.81;;;11.38;88.28
29907;BME280;16776;50.958;10.994;2023-04-22T04:56:47;98007.50;;;11.41;88.05
29907;BME280;16776;50.958;10.994;2023-04-22T04:59:13;98013.31;;;11.46;87.92
29907;BME280;16776;50.958;10.994;2023-04-22T05:01:40;98014.06;;;11.50;88.17
29907;BME280;16776;50.958;10.994;2023-04-22T05:04:07;98011.28;;;11.54;87.94
29907;BME280;16776;50.958;10.994;2023-04-22T05:06:35;98022.09;;;11.64;88.47
29907;BME280;16776;50.958;10.994;2023-04-22T05:09:01;98014.13;;;11.70;88.18
29907;BME280;16776;50.958;10.994;2023-04-22T05:11:28;98011.19;;;11.77;88.50
29907;BME280;16776;50.958;10.994;2023-04-22T05:13:55;98004.78;;;11.88;88.01
29907;BME280;16776;50.958;10.994;2023-04-22T05:16:21;98013.88;;;11.96;88.06
29907;BME280;16776;50.958;10.994;2023-04-22T05:18:48;98010.09;;;12.03;88.07
29907;BME280;16776;50.958;10.994;2023-04-22T05:21:14;98019.28;;;12.10;88.40
29907;BME280;16776;50.958;10.994;2023-04-22T05:23:42;98016.31;;;12.19;87.99
29907;BME280;16776;50.958;10.994;2023-04-22T05:26:09;98017.72;;;12.27;88.47
29907;BME280;16776;50.958;10.994;2023-04-22T05:28:35;98012.09;;;12.37;88.56
29907;BME280;16776;50.958;10.994;2023-04-22T05:31:02;98019.28;;;12.49;88.59
29907;BME280;16776;50.958;10.994;2023-04-22T05:33:28;98007.59;;;12.61;88.20
29907;BME280;16776;50.958;10.994;2023-04-22T05:35:55;98012.09;;;12.76;87.94
29907;BME280;16776;50.958;10.994;2023-04-22T05:38:22;98011.53;;;12.88;88.67
29907;BME280;16776;50.958;10.994;2023-04-22T05:40:49;98016.84;;;13.04;89.43
29907;BME280;16776;50.958;10.994;2023-04-22T05:43:16;98014.53;;;13.17;88.40
29907;BME280;16776;50.958;10.994;2023-04-22T05:45:43;98018.13;;;13.31;88.33
29907;BME280;16776;50.958;10.994;2023-04-22T05:48:09;98020.97;;;13.44;88.10
29907;BME280;16776;50.958;10.994;2023-04-22T05:50:36;98020.44;;;13.56;87.99
29907;BME280;16776;50.958;10.994;2023-04-22T05:53:02;98027.66;;;13.67;87.59
29907;BME280;16776;50.958;10.994;2023-04-22T05:55:29;98017.69;;;13.76;87.63
29907;BME280;16776;50.958;10.994;2023-04-22T05:57:57;98017.16;;;13.87;86.94
29907;BME280;16776;50.958;10.994;2023-04-22T06:00:24;98023.84;;;13.91;86.99
29907;BME280;16776;50.958;10.994;2023-04-22T06:02:51;98020.88;;;13.99;86.54
29907;BME280;16776;50.958;10.994;2023-04-22T06:05:17;98014.63;;;14.03;86.48
29907;BME280;16776;50.958;10.994;2023-04-22T06:07:44;98016.00;;;14.10;86.46
29907;BME280;16776;50.958;10.994;2023-04-22T06:10:10;98020.72;;;14.19;86.30
29907;BME280;16776;50.958;10.994;2023-04-22T06:12:37;98030.78;;;14.25;85.68
29907;BME280;16776;50.958;10.994;2023-04-22T06:15:06;98016.59;;;14.32;85.93
29907;BME280;16776;50.958;10.994;2023-04-22T06:17:32;98016.41;;;14.35;85.75
29907;BME280;16776;50.958;10.994;2023-04-22T06:19:59;98016.28;;;14.38;85.15
29907;BME280;16776;50.958;10.994;2023-04-22T06:22:25;98014.59;;;14.37;85.22
29907;BME280;16776;50.958;10.994;2023-04-22T06:24:52;98013.69;;;14.38;85.14
29907;BME280;16776;50.958;10.994;2023-04-22T06:27:19;98014.53;;;14.39;85.27
29907;BME280;16776;50.958;10.994;2023-04-22T06:29:45;98014.41;;;14.40;85.02
29907;BME280;16776;50.958;10.994;2023-04-22T06:32:13;98010.00;;;14.42;85.42
29907;BME280;16776;50.958;10.994;2023-04-22T06:34:40;97984.81;;;14.29;85.45
29907;BME280;16776;50.958;10.994;2023-04-22T06:37:06;98010.63;;;14.47;85.51
29907;BME280;16776;50.958;10.994;2023-04-22T06:39:33;98011.16;;;14.54;85.70
29907;BME280;16776;50.958;10.994;2023-04-22T06:41:59;98006.47;;;14.60;85.53
29907;BME280;16776;50.958;10.994;2023-04-22T06:44:27;98006.00;;;14.70;85.66
29907;BME280;16776;50.958;10.994;2023-04-22T06:46:54;98016.69;;;14.79;85.33
29907;BME280;16776;50.958;10.994;2023-04-22T06:49:22;98011.69;;;14.92;85.56
29907;BME280;16776;50.958;10.994;2023-04-22T06:51:48;98012.13;;;15.00;85.45
29907;BME280;16776;50.958;10.994;2023-04-22T06:54:15;98010.69;;;15.10;85.36
29907;BME280;16776;50.958;10.994;2023-04-22T06:56:42;98014.47;;;15.20;85.23
29907;BME280;16776;50.958;10.994;2023-04-22T06:59:08;98007.94;;;15.29;85.40
29907;BME280;16776;50.958;10.994;2023-04-22T07:01:35;98012.63;;;15.38;85.68
29907;BME280;16776;50.958;10.994;2023-04-22T07:04:01;98010.53;;;15.45;84.99
29907;BME280;16776;50.958;10.994;2023-04-22T07:06:29;98007.31;;;15.55;84.83
29907;BME280;16776;50.958;10.994;2023-04-22T07:08:57;98004.50;;;15.60;84.76
29907;BME280;16776;50.958;10.994;2023-04-22T07:11:23;98003.56;;;15.61;84.58
29907;BME280;16776;50.958;10.994;2023-04-22T07:13:50;97997.34;;;15.63;84.35
29907;BME280;16776;50.958;10.994;2023-04-22T07:16:17;97997.28;;;15.65;84.87
29907;BME280;16776;50.958;10.994;2023-04-22T07:18:43;97993.47;;;15.70;84.88
29907;BME280;16776;50.958;10.994;2023-04-22T07:21:10;98004.28;;;15.78;84.72
29907;BME280;16776;50.958;10.994;2023-04-22T07:23:38;98003.63;;;15.89;85.15
29907;BME280;16776;50.958;10.994;2023-04-22T07:26:05;98001.59;;;15.94;85.48
29907;BME280;16776;50.958;10.994;2023-04-22T07:28:31;97993.28;;;16.03;85.37
29907;BME280;16776;50.958;10.994;2023-04-22T07:30:58;97997.63;;;16.18;85.53
29907;BME280;16776;50.958;10.994;2023-04-22T07:33:24;97990.84;;;16.30;85.34
29907;BME280;16776;50.958;10.994;2023-04-22T07:35:51;97994.25;;;16.45;85.41
29907;BME280;16776;50.958;10.994;2023-04-22T07:38:17;97983.03;;;16.58;84.42
29907;BME280;16776;50.958;10.994;2023-04-22T07:40:45;97985.72;;;16.71;84.63
29907;BME280;16776;50.958;10.994;2023-04-22T07:43:12;97990.25;;;16.82;85.12
29907;BME280;16776;50.958;10.994;2023-04-22T07:45:38;97982.63;;;16.93;84.42
29907;BME280;16776;50.958;10.994;2023-04-22T07:48:05;97988.00;;;17.04;84.19
29907;BME280;16776;50.958;10.994;2023-04-22T07:50:31;97982.03;;;17.16;83.77
29907;BME280;16776;50.958;10.994;2023-04-22T07:52:58;97984.06;;;17.25;83.62
29907;BME280;16776;50.958;10.994;2023-04-22T07:55:25;97976.47;;;17.35;84.02
29907;BME280;16776;50.958;10.994;2023-04-22T07:57:52;97984.88;;;17.53;83.08
29907;BME280;16776;50.958;10.994;2023-04-22T08:00:19;97976.75;;;17.57;83.08
29907;BME280;16776;50.958;10.994;2023-04-22T08:02:46;97963.25;;;17.65;82.74
29907;BME280;16776;50.958;10.994;2023-04-22T08:05:12;97963.56;;;17.73;82.77
29907;BME280;16776;50.958;10.994;2023-04-22T08:07:39;97963.16;;;17.79;82.58
29907;BME280;16776;50.958;10.994;2023-04-22T08:10:06;97970.19;;;17.91;82.62
29907;BME280;16776;50.958;10.994;2023-04-22T08:12:33;97957.69;;;17.96;82.03
29907;BME280;16776;50.958;10.994;2023-04-22T08:15:01;97947.59;;;18.04;81.96
29907;BME280;16776;50.958;10.994;2023-04-22T08:17:30;97952.56;;;18.07;81.09
29907;BME280;16776;50.958;10.994;2023-04-22T08:19:56;97957.78;;;18.07;81.50
29907;BME280;16776;50.958;10.994;2023-04-22T08:22:23;97949.34;;;18.04;81.15
29907;BME280;16776;50.958;10.994;2023-04-22T08:24:49;97962.16;;;18.07;81.04
29907;BME280;16776;50.958;10.994;2023-04-22T08:27:16;97956.84;;;18.08;81.06
29907;BME280;16776;50.958;10.994;2023-04-22T08:29:43;97957.69;;;18.09;81.06
29907;BME280;16776;50.958;10.994;2023-04-22T08:32:11;97953.41;;;18.08;81.35
29907;BME280;16776;50.958;10.994;2023-04-22T08:34:40;97957.88;;;18.06;81.23
29907;BME280;16776;50.958;10.994;2023-04-22T08:37:06;97958.00;;;18.04;81.55
29907;BME280;16776;50.958;10.994;2023-04-22T08:39:33;97958.53;;;18.09;81.67
29907;BME280;16776;50.958;10.994;2023-04-22T08:42:00;97959.22;;;18.11;81.82
29907;BME280;16776;50.958;10.994;2023-04-22T08:44:27;97937.47;;;18.00;81.64
29907;BME280;16776;50.958;10.994;2023-04-22T08:46:55;97949.63;;;18.25;81.51
29907;BME280;16776;50.958;10.994;2023-04-22T08:49:23;97943.91;;;18.32;81.91
29907;BME280;16776;50.958;10.994;2023-04-22T08:51:50;97950.97;;;18.43;81.90
29907;BME280;16776;50.958;10.994;2023-04-22T08:54:17;97943.28;;;18.54;81.79
29907;BME280;16776;50.958;10.994;2023-04-22T08:56:44;97940.75;;;18.65;81.75
29907;BME280;16776;50.958;10.994;2023-04-22T08:59:11;97939.78;;;18.79;81.94
29907;BME280;16776;50.958;10.994;2023-04-22T09:01:39;97952.78;;;18.91;82.24
29907;BME280;16776;50.958;10.994;2023-04-22T09:04:07;97945.41;;;19.09;81.31
29907;BME280;16776;50.958;10.994;2023-04-22T09:06:37;97935.34;;;19.16;80.38
29907;BME280;16776;50.958;10.994;2023-04-22T09:09:03;97946.84;;;19.26;80.65
29907;BME280;16776;50.958;10.994;2023-04-22T09:11:31;97929.75;;;19.33;80.89
29907;BME280;16776;50.958;10.994;2023-04-22T09:14:00;97931.13;;;19.39;81.13
29907;BME280;16776;50.958;10.994;2023-04-22T09:16:28;97929.47;;;19.49;81.22
29907;BME280;16776;50.958;10.994;2023-04-22T09:18:56;97922.75;;;19.57;80.50
29907;BME280;16776;50.958;10.994;2023-04-22T09:21:24;97923.34;;;19.72;80.48
29907;BME280;16776;50.958;10.994;2023-04-22T09:23:54;97912.81;;;19.85;80.25
29907;BME280;16776;50.958;10.994;2023-04-22T09:26:22;97913.22;;;19.91;79.62
29907;BME280;16776;50.958;10.994;2023-04-22T09:28:49;97911.81;;;19.98;79.21
29907;BME280;16776;50.958;10.994;2023-04-22T09:31:16;97914.78;;;20.05;79.89
29907;BME280;16776;50.958;10.994;2023-04-22T09:33:49;97906.81;;;20.17;79.87
29907;BME280;16776;50.958;10.994;2023-04-22T09:36:16;97900.28;;;20.23;79.29
29907;BME280;16776;50.958;10.994;2023-04-22T09:38:54;97909.09;;;20.44;80.38
29907;BME280;16776;50.958;10.994;2023-04-22T09:41:27;97917.75;;;20.56;79.67
29907;BME280;16776;50.958;10.994;2023-04-22T09:43:55;97912.06;;;20.62;78.36
29907;BME280;16776;50.958;10.994;2023-04-22T09:46:23;97904.56;;;20.69;78.05
29907;BME280;16776;50.958;10.994;2023-04-22T09:48:50;97916.19;;;20.76;78.87
29907;BME280;16776;50.958;10.994;2023-04-22T09:51:18;97907.75;;;20.83;77.85
29907;BME280;16776;50.958;10.994;2023-04-22T09:53:57;97904.84;;;20.98;78.81
29907;BME280;16776;50.958;10.994;2023-04-22T09:56:41;97903.66;;;21.02;79.23
29907;BME280;16776;50.958;10.994;2023-04-22T09:59:08;97899.34;;;21.01;77.54
29907;BME280;16776;50.958;10.994;2023-04-22T10:01:35;97890.06;;;21.08;78.47
29907;BME280;16776;50.958;10.994;2023-04-22T10:04:03;97891.94;;;21.17;78.22
29907;BME280;16776;50.958;10.994;2023-04-22T10:06:30;97886.09;;;21.24;77.65
29907;BME280;16776;50.958;10.994;2023-04-22T10:08:59;97889.50;;;21.36;78.04
29907;BME280;16776;50.958;10.994;2023-04-22T10:11:26;97888.28;;;21.40;77.81
29907;BME280;16776;50.958;10.994;2023-04-22T10:13:53;97887.53;;;21.49;77.38
29907;BME280;16776;50.958;10.994;2023-04-22T10:16:21;97886.06;;;21.56;76.68
29907;BME280;16776;50.958;10.994;2023-04-22T10:18:50;97877.69;;;21.62;77.30
29907;BME280;16776;50.958;10.994;2023-04-22T10:21:18;97876.06;;;21.71;76.72
29907;BME280;16776;50.958;10.994;2023-04-22T10:23:45;97858.13;;;21.66;76.47
29907;BME280;16776;50.958;10.994;2023-04-22T10:26:37;97888.25;;;22.02;77.05
29907;BME280;16776;50.958;10.994;2023-04-22T10:29:04;97886.03;;;21.98;75.70
29907;BME280;16776;50.958;10.994;2023-04-22T10:31:31;97879.31;;;22.05;74.94
29907;BME280;16776;50.958;10.994;2023-04-22T10:34:08;97891.13;;;22.20;75.12
29907;BME280;16776;50.958;10.994;2023-04-22T10:36:51;97885.47;;;22.25;74.96
29907;BME280;16776;50.958;10.994;2023-04-22T10:39:18;97887.50;;;22.11;74.03
29907;BME280;16776;50.958;10.994;2023-04-22T10:41:51;97882.69;;;22.17;74.87
29907;BME280;16776;50.958;10.994;2023-04-22T10:44:19;97879.63;;;22.11;74.53
29907;BME280;16776;50.958;10.994;2023-04-22T10:46:56;97878.69;;;22.22;75.83
29907;BME280;16776;50.958;10.994;2023-04-22T10:49:25;97872.91;;;22.19;74.54
29907;BME280;16776;50.958;10.994;2023-04-22T10:51:53;97872.78;;;22.20;74.29
29907;BME280;16776;50.958;10.994;2023-04-22T10:54:54;97867.41;;;22.31;75.06
29907;BME280;16776;50.958;10.994;2023-04-22T10:57:31;97866.00;;;22.27;74.37
29907;BME280;16776;50.958;10.994;2023-04-22T11:00:16;97862.16;;;22.31;73.70
29907;BME280;16776;50.958;10.994;2023-04-22T11:02:44;97855.91;;;22.13;72.62
29907;BME280;16776;50.958;10.994;2023-04-22T11:05:18;97853.28;;;22.13;73.49
29907;BME280;16776;50.958;10.994;2023-04-22T11:07:46;97861.41;;;22.10;73.46
29907;BME280;16776;50.958;10.994;2023-04-22T11:10:30;97849.69;;;22.14;73.62
29907;BME280;16776;50.958;10.994;2023-04-22T11:12:59;97851.88;;;22.09;72.70
29907;BME280;16776;50.958;10.994;2023-04-22T11:15:28;97854.22;;;22.12;73.41
29907;BME280;16776;50.958;10.994;2023-04-22T11:17:55;97843.31;;;22.07;73.65
29907;BME280;16776;50.958;10.994;2023-04-22T11:20:22;97854.41;;;22.20;73.36
29907;BME280;16776;50.958;10.994;2023-04-22T11:22:50;97849.31;;;22.28;73.52
29907;BME280;16776;50.958;10.994;2023-04-22T11:25:17;97843.69;;;22.33;73.13
29907;BME280;16776;50.958;10.994;2023-04-22T11:27:44;97852.53;;;22.41;72.86
29907;BME280;16776;50.958;10.994;2023-04-22T11:30:14;97849.94;;;22.51;73.53
29907;BME280;16776;50.958;10.994;2023-04-22T11:32:42;97843.59;;;22.53;72.99
29907;BME280;16776;50.958;10.994;2023-04-22T11:35:11;97835.91;;;22.62;73.25
29907;BME280;16776;50.958;10.994;2023-04-22T11:37:39;97838.25;;;22.65;73.09
29907;BME280;16776;50.958;10.994;2023-04-22T11:40:07;97832.47;;;22.71;73.16
29907;BME280;16776;50.958;10.994;2023-04-22T11:42:34;97839.22;;;22.73;73.10
29907;BME280;16776;50.958;10.994;2023-04-22T11:45:02;97825.72;;;22.78;71.89
29907;BME280;16776;50.958;10.994;2023-04-22T11:47:30;97826.25;;;22.81;72.47
29907;BME280;16776;50.958;10.994;2023-04-22T11:49:58;97826.25;;;22.81;72.66
29907;BME280;16776;50.958;10.994;2023-04-22T11:52:40;97823.75;;;22.99;73.09
29907;BME280;16776;50.958;10.994;2023-04-22T11:55:09;97819.06;;;22.93;72.05
29907;BME280;16776;50.958;10.994;2023-04-22T11:57:36;97827.34;;;22.98;72.52
29907;BME280;16776;50.958;10.994;2023-04-22T12:00:03;97817.53;;;23.00;71.87
29907;BME280;16776;50.958;10.994;2023-04-22T12:02:32;97822.53;;;23.03;71.92
29907;BME280;16776;50.958;10.994;2023-04-22T12:05:01;97824.16;;;23.04;70.92
29907;BME280;16776;50.958;10.994;2023-04-22T12:07:28;97814.22;;;22.98;70.95
29907;BME280;16776;50.958;10.994;2023-04-22T12:09:55;97824.06;;;22.96;70.75
29907;BME280;16776;50.958;10.994;2023-04-22T12:12:23;97816.72;;;23.00;70.69
29907;BME280;16776;50.958;10.994;2023-04-22T12:14:50;97806.63;;;22.95;70.30
29907;BME280;16776;50.958;10.994;2023-04-22T12:17:21;97812.41;;;22.99;71.36
29907;BME280;16776;50.958;10.994;2023-04-22T12:19:54;97815.03;;;22.99;71.59
29907;BME280;16776;50.958;10.994;2023-04-22T12:22:24;97819.47;;;22.98;72.74
29907;BME280;16776;50.958;10.994;2023-04-22T12:24:51;97814.22;;;22.88;70.71
29907;BME280;16776;50.958;10.994;2023-04-22T12:27:18;97810.34;;;22.92;70.10
29907;BME280;16776;50.958;10.994;2023-04-22T12:29:50;97802.88;;;22.98;70.31
29907;BME280;16776;50.958;10.994;2023-04-22T12:32:17;97798.59;;;22.87;68.96
29907;BME280;16776;50.958;10.994;2023-04-22T12:34:43;97796.41;;;22.82;69.63
29907;BME280;16776;50.958;10.994;2023-04-22T12:37:11;97789.91;;;22.77;68.54
29907;BME280;16776;50.958;10.994;2023-04-22T12:39:38;97804.16;;;22.65;68.53
29907;BME280;16776;50.958;10.994;2023-04-22T12:42:05;97802.59;;;22.52;68.46
29907;BME280;16776;50.958;10.994;2023-04-22T12:44:31;97802.41;;;22.44;68.55
29907;BME280;16776;50.958;10.994;2023-04-22T12:46:58;97803.09;;;22.37;68.28
29907;BME280;16776;50.958;10.994;2023-04-22T12:49:25;97808.75;;;22.32;68.98
29907;BME280;16776;50.958;10.994;2023-04-22T12:51:52;97800.31;;;22.29;68.78